Time;durP1;ratioP1;P1;durP2;ratioP2;P2;SDS_P1;SDS_P2;PMS_P1;PMS_P2;Temp;Humidity;BMP_temperature;BMP_pressure;BME280_temperature;BME280_humidity;BME280_pressure;Samples;Min_cycle;Max_cycle;Signal;HPM_P1;HPM_P2
2022/03/27 00:01:52;;;;;;;4.00;1.30;;;21.20;99.90;;;;;;5023678;28;20033;-69
2022/03/27 00:04:19;;;;;;;7.63;5.40;;;21.10;99.90;;;;;;5024502;28;20112;-64
2022/03/27 00:06:46;;;;;;;5.50;2.83;;;21.00;99.90;;;;;;5024858;28;20404;-66
2022/03/27 00:09:15;;;;;;;7.63;4.03;;;21.00;99.90;;;;;;5025276;28;20055;-63
2022/03/27 00:11:42;;;;;;;6.85;3.97;;;20.90;99.90;;;;;;5023472;28;20433;-70
2022/03/27 00:14:09;;;;;;;5.68;2.80;;;20.90;99.90;;;;;;5024397;28;20104;-62
2022/03/27 00:16:36;;;;;;;4.60;3.45;;;20.90;99.90;;;;;;5025646;28;20044;-63
2022/03/27 00:19:03;;;;;;;2.63;1.10;;;21.00;99.90;;;;;;5022214;28;20029;-64
2022/03/27 00:21:30;;;;;;;3.05;1.50;;;21.00;99.90;;;;;;5024605;28;20108;-65
2022/03/27 00:23:57;;;;;;;4.28;1.50;;;21.00;99.90;;;;;;5020781;28;20021;-70
2022/03/27 00:26:24;;;;;;;6.57;3.20;;;21.10;99.90;;;;;;5021954;28;20463;-65
2022/03/27 00:28:52;;;;;;;4.45;1.40;;;21.20;99.90;;;;;;5020154;28;20026;-64
2022/03/27 00:31:19;;;;;;;3.22;1.88;;;21.30;99.90;;;;;;5018523;28;20502;-63
2022/03/27 00:33:47;;;;;;;4.20;1.88;;;21.40;99.90;;;;;;5019518;28;20481;-63
2022/03/27 00:36:17;;;;;;;4.03;2.53;;;21.40;99.90;;;;;;5018404;28;20551;-66
2022/03/27 00:38:45;;;;;;;9.02;6.28;;;21.40;99.90;;;;;;5021344;28;20025;-67
2022/03/27 00:41:15;;;;;;;5.68;1.90;;;21.50;99.90;;;;;;5020197;28;20020;-71
2022/03/27 00:43:43;;;;;;;4.60;1.58;;;21.70;99.90;;;;;;5018752;28;20033;-68
2022/03/27 00:46:11;;;;;;;6.40;2.42;;;21.90;99.90;;;;;;5018925;28;20487;-67
2022/03/27 00:48:39;;;;;;;4.80;1.98;;;21.90;99.90;;;;;;5018795;28;20032;-66
2022/03/27 00:51:06;;;;;;;3.90;2.22;;;21.90;99.90;;;;;;5021550;28;20021;-63
2022/03/27 00:53:33;;;;;;;3.97;1.83;;;22.20;99.90;;;;;;5017190;28;20041;-63
2022/03/27 00:56:00;;;;;;;4.93;1.90;;;22.40;99.90;;;;;;5017451;28;20131;-65
2022/03/27 00:58:27;;;;;;;4.07;2.30;;;22.70;99.90;;;;;;5020641;28;20108;-63
2022/03/27 01:01:23;;;;;;;3.03;1.50;;;23.00;99.90;;;;;;5018671;28;20022;-65
2022/03/27 01:03:54;;;;;;;3.53;1.75;;;23.30;99.90;;;;;;5019760;28;20168;-63
2022/03/27 01:06:34;;;;;;;2.83;1.35;;;23.50;99.90;;;;;;5020911;28;20037;-69
2022/03/27 01:11:51;;;;;;;5.25;1.58;;;24.10;99.90;;;;;;5017418;28;20133;-64
2022/03/27 01:14:48;;;;;;;4.10;1.95;;;24.20;99.90;;;;;;5017996;28;20369;-61
2022/03/27 01:17:24;;;;;;;3.90;2.80;;;24.60;99.90;;;;;;4937833;28;20671;-62
2022/03/27 01:19:54;;;;;;;3.28;1.15;;;24.90;99.90;;;;;;4936805;28;20087;-61
2022/03/27 01:22:22;;;;;;;4.60;2.40;;;25.00;99.90;;;;;;4940246;28;20050;-69
2022/03/27 01:24:52;;;;;;;2.85;1.40;;;24.90;99.90;;;;;;4941426;28;20038;-62
2022/03/27 01:27:19;;;;;;;2.83;1.45;;;25.00;99.90;;;;;;4939146;28;20078;-65
2022/03/27 01:29:46;;;;;;;3.63;1.40;;;24.90;99.90;;;;;;4939760;28;20035;-63
2022/03/27 01:32:16;;;;;;;3.33;1.00;;;25.00;99.90;;;;;;4939460;28;20035;-62
2022/03/27 01:34:44;;;;;;;7.05;3.38;;;25.10;99.90;;;;;;4940748;28;20043;-63
2022/03/27 01:37:14;;;;;;;4.05;1.63;;;25.00;99.90;;;;;;4938965;28;20609;-64
2022/03/27 01:39:41;;;;;;;6.40;4.57;;;25.20;99.90;;;;;;4938743;28;20082;-65
2022/03/27 01:42:09;;;;;;;3.75;1.75;;;25.40;99.90;;;;;;4937993;28;20039;-69
2022/03/27 01:44:36;;;;;;;5.32;1.90;;;25.20;99.90;;;;;;4936122;28;20498;-64
2022/03/27 01:47:03;;;;;;;4.20;1.25;;;25.40;99.90;;;;;;4936773;28;20113;-68
2022/03/27 01:49:30;;;;;;;3.20;1.27;;;25.40;99.90;;;;;;4937749;28;20035;-68
2022/03/27 01:51:58;;;;;;;3.97;1.40;;;25.40;99.90;;;;;;4936356;28;20054;-62
2022/03/27 01:54:24;;;;;;;3.60;1.27;;;25.40;99.90;;;;;;5002734;28;20069;-61
2022/03/27 01:56:51;;;;;;;3.05;1.20;;;25.30;99.90;;;;;;5019929;28;20482;-70
2022/03/27 01:59:21;;;;;;;4.30;1.20;;;25.20;99.90;;;;;;5020071;28;20116;-65
2022/03/27 02:01:49;;;;;;;4.20;1.33;;;25.00;99.90;;;;;;5019106;28;20108;-63
2022/03/27 02:04:16;;;;;;;2.88;1.17;;;24.90;99.90;;;;;;5019755;28;20470;-65
2022/03/27 02:06:43;;;;;;;2.47;1.20;;;24.70;99.90;;;;;;5001454;28;20593;-65
2022/03/27 02:09:12;;;;;;;4.40;1.98;;;24.70;99.90;;;;;;5018939;28;20666;-63
2022/03/27 02:11:41;;;;;;;11.65;4.03;;;24.60;99.90;;;;;;5019744;28;20068;-68
2022/03/27 02:14:08;;;;;;;7.22;2.83;;;24.60;99.90;;;;;;5019831;28;20120;-67
2022/03/27 02:16:36;;;;;;;7.57;3.80;;;24.60;99.90;;;;;;5019980;28;20197;-67
2022/03/27 02:19:08;;;;;;;9.70;6.10;;;24.60;99.90;;;;;;5017249;28;20025;-62
2022/03/27 02:21:35;;;;;;;9.82;4.20;;;24.60;99.90;;;;;;5018674;28;20083;-65
2022/03/27 02:24:06;;;;;;;3.80;2.08;;;24.30;99.90;;;;;;5019705;28;20109;-63
2022/03/27 02:26:33;;;;;;;3.95;1.23;;;24.00;99.90;;;;;;5018658;28;20021;-68
2022/03/27 02:29:01;;;;;;;6.10;1.67;;;23.40;99.90;;;;;;5016933;28;20466;-63
2022/03/27 02:31:28;;;;;;;2.63;1.00;;;22.90;99.90;;;;;;5017646;28;20349;-65
2022/03/27 02:33:55;;;;;;;3.72;1.75;;;22.50;99.90;;;;;;5020293;28;20029;-66
2022/03/27 02:36:22;;;;;;;3.17;1.25;;;22.20;99.90;;;;;;5018179;28;20348;-64
2022/03/27 02:38:49;;;;;;;3.95;1.20;;;21.90;99.90;;;;;;5018044;28;20489;-66
2022/03/27 02:41:16;;;;;;;3.17;1.50;;;21.70;99.90;;;;;;5017234;28;20030;-65
2022/03/27 02:43:44;;;;;;;5.25;1.77;;;21.60;99.90;;;;;;5017074;28;20034;-66
2022/03/27 02:46:11;;;;;;;4.53;2.03;;;21.40;99.90;;;;;;5018245;28;20409;-64
2022/03/27 02:48:38;;;;;;;2.50;0.82;;;21.10;99.90;;;;;;5017996;28;20045;-64
2022/03/27 02:51:05;;;;;;;1.55;0.70;;;21.00;99.90;;;;;;5016871;28;20029;-68
2022/03/27 02:53:32;;;;;;;3.88;0.95;;;21.10;99.90;;;;;;5018177;28;20029;-66
2022/03/27 02:55:59;;;;;;;2.22;1.17;;;21.10;99.90;;;;;;5019719;28;20581;-77
2022/03/27 02:58:26;;;;;;;2.28;1.20;;;21.20;99.90;;;;;;5019172;28;20164;-68
2022/03/27 03:00:53;;;;;;;6.13;1.35;;;21.30;99.90;;;;;;5020712;28;20659;-67
2022/03/27 03:03:20;;;;;;;4.22;1.58;;;21.40;99.90;;;;;;5019995;28;20029;-66
2022/03/27 03:05:48;;;;;;;3.55;1.30;;;21.60;99.90;;;;;;5017553;28;20467;-65
2022/03/27 03:08:17;;;;;;;4.13;1.48;;;21.80;99.90;;;;;;5019570;28;20038;-67
2022/03/27 03:10:45;;;;;;;3.97;1.20;;;21.90;99.90;;;;;;5021614;28;20037;-70
2022/03/27 03:13:13;;;;;;;3.08;1.20;;;22.10;99.90;;;;;;5019978;28;20762;-66
2022/03/27 03:15:42;;;;;;;2.22;1.17;;;22.20;99.90;;;;;;5015848;28;20025;-66
2022/03/27 03:18:10;;;;;;;1.90;1.10;;;22.40;99.90;;;;;;5015517;28;20112;-64
2022/03/27 03:20:39;;;;;;;3.17;1.38;;;22.30;99.90;;;;;;5019205;28;20433;-65
2022/03/27 03:23:06;;;;;;;2.53;0.98;;;22.30;99.90;;;;;;4670868;28;10000160;-65
2022/03/27 03:25:33;;;;;;;4.85;2.40;;;22.30;99.90;;;;;;5018828;28;20123;-68
2022/03/27 03:28:00;;;;;;;5.72;4.38;;;22.30;99.90;;;;;;5018837;28;20055;-73
2022/03/27 03:30:27;;;;;;;3.50;1.48;;;22.40;99.90;;;;;;5018520;28;20116;-75
2022/03/27 03:32:54;;;;;;;4.32;1.83;;;22.60;99.90;;;;;;5018579;28;20025;-67
2022/03/27 03:35:21;;;;;;;2.60;1.10;;;22.70;99.90;;;;;;5018363;28;20025;-70
2022/03/27 03:37:48;;;;;;;2.58;1.10;;;22.60;99.90;;;;;;5016450;28;20215;-68
2022/03/27 03:40:15;;;;;;;3.13;1.10;;;22.50;99.90;;;;;;5019638;28;20060;-66
2022/03/27 03:42:42;;;;;;;2.63;1.02;;;22.60;99.90;;;;;;5019842;28;20586;-67
2022/03/27 03:45:10;;;;;;;2.53;1.08;;;22.60;99.90;;;;;;5019469;28;20029;-66
2022/03/27 03:47:37;;;;;;;3.03;1.02;;;22.50;99.90;;;;;;5019352;28;20040;-67
2022/03/27 03:50:05;;;;;;;3.10;1.17;;;22.60;99.90;;;;;;5020365;28;20021;-67
2022/03/27 03:52:32;;;;;;;2.13;1.08;;;22.60;99.90;;;;;;5018325;28;20034;-70
2022/03/27 03:54:59;;;;;;;2.65;1.05;;;22.60;99.90;;;;;;5019314;28;20613;-69
2022/03/27 03:57:26;;;;;;;1.65;0.60;;;22.60;99.90;;;;;;5019408;28;20022;-69
2022/03/27 03:59:53;;;;;;;2.38;0.80;;;22.60;99.90;;;;;;5021466;28;20029;-65
2022/03/27 04:02:20;;;;;;;2.00;0.98;;;22.60;99.90;;;;;;5017822;28;20107;-68
2022/03/27 04:04:47;;;;;;;2.05;1.17;;;22.60;99.90;;;;;;5020806;28;20040;-69
2022/03/27 04:07:14;;;;;;;2.35;1.00;;;22.50;99.90;;;;;;5000963;28;20037;-70
2022/03/27 04:09:41;;;;;;;1.73;1.10;;;22.40;99.90;;;;;;5019386;28;20111;-64
2022/03/27 04:12:09;;;;;;;1.80;1.02;;;22.30;99.90;;;;;;5020281;28;20142;-65
2022/03/27 04:14:36;;;;;;;2.33;1.23;;;22.30;99.90;;;;;;5019440;28;20519;-68
2022/03/27 04:17:06;;;;;;;3.38;1.50;;;22.40;99.90;;;;;;5017647;28;20018;-68
2022/03/27 04:19:33;;;;;;;4.57;1.30;;;22.40;99.90;;;;;;5020098;28;20029;-68
2022/03/27 04:22:00;;;;;;;4.10;1.60;;;22.50;99.90;;;;;;5017888;28;20034;-67
2022/03/27 04:24:27;;;;;;;3.65;1.02;;;22.60;99.90;;;;;;5018275;28;20112;-67
2022/03/27 04:26:54;;;;;;;1.55;0.90;;;22.60;99.90;;;;;;5017717;28;20036;-69
2022/03/27 04:29:22;;;;;;;4.97;1.50;;;22.60;99.90;;;;;;5018104;28;20029;-68
2022/03/27 04:31:49;;;;;;;2.45;1.20;;;22.40;99.90;;;;;;5016820;28;20157;-67
2022/03/27 04:34:16;;;;;;;2.53;1.33;;;22.50;99.90;;;;;;5014344;28;20570;-65
2022/03/27 04:36:43;;;;;;;2.90;1.23;;;22.50;99.90;;;;;;5000856;28;20071;-70
2022/03/27 04:39:10;;;;;;;4.85;1.45;;;22.60;99.90;;;;;;5014270;28;20060;-66
2022/03/27 04:41:38;;;;;;;2.78;1.15;;;22.60;99.90;;;;;;5016248;28;20491;-69
2022/03/27 04:44:06;;;;;;;2.72;1.13;;;22.70;99.90;;;;;;5016036;28;20025;-65
2022/03/27 04:46:33;;;;;;;4.90;1.30;;;22.80;99.90;;;;;;5013770;28;20887;-69
2022/03/27 04:49:01;;;;;;;5.60;1.27;;;22.80;99.90;;;;;;5013105;28;20116;-66
2022/03/27 04:51:28;;;;;;;4.35;1.27;;;22.80;99.90;;;;;;5015858;28;20167;-65
2022/03/27 04:53:55;;;;;;;4.60;1.30;;;22.70;99.90;;;;;;5017855;28;20350;-68
2022/03/27 04:56:22;;;;;;;3.55;1.30;;;22.80;99.90;;;;;;5016576;28;20408;-69
2022/03/27 04:58:49;;;;;;;5.40;1.30;;;22.80;99.90;;;;;;5014849;28;20091;-69
2022/03/27 05:01:16;;;;;;;4.30;1.67;;;22.90;99.90;;;;;;5015700;28;20029;-69
2022/03/27 05:03:43;;;;;;;4.63;1.23;;;22.90;99.90;;;;;;5014446;28;20132;-65
2022/03/27 05:06:10;;;;;;;4.88;1.38;;;23.00;99.90;;;;;;5014412;28;20111;-69
2022/03/27 05:08:37;;;;;;;2.78;1.00;;;22.90;99.90;;;;;;5017718;28;20608;-70
2022/03/27 05:11:06;;;;;;;3.50;1.20;;;23.00;99.90;;;;;;5015135;28;20037;-70
2022/03/27 05:13:33;;;;;;;5.28;1.42;;;22.90;99.90;;;;;;5015121;28;20412;-66
2022/03/27 05:16:00;;;;;;;4.38;1.17;;;22.80;99.90;;;;;;5017628;28;20029;-66
2022/03/27 05:18:27;;;;;;;2.72;1.00;;;22.70;99.90;;;;;;5014734;28;20103;-70
2022/03/27 05:20:54;;;;;;;3.33;1.23;;;22.60;99.90;;;;;;5014874;28;20029;-70
2022/03/27 05:23:21;;;;;;;4.47;0.80;;;22.50;99.90;;;;;;5016614;28;20025;-70
2022/03/27 05:25:50;;;;;;;3.33;1.15;;;22.40;99.90;;;;;;5015446;28;20025;-65
2022/03/27 05:28:19;;;;;;;2.10;0.95;;;22.40;99.90;;;;;;5016395;28;20040;-65
2022/03/27 05:30:46;;;;;;;3.75;1.20;;;22.30;99.90;;;;;;5016477;28;20606;-71
2022/03/27 05:33:14;;;;;;;2.50;1.13;;;22.20;99.90;;;;;;5015120;28;20041;-72
2022/03/27 05:35:41;;;;;;;4.40;1.35;;;22.10;99.90;;;;;;5015128;28;20052;-66
2022/03/27 05:38:08;;;;;;;2.72;1.85;;;22.10;99.90;;;;;;5015787;28;20586;-66
2022/03/27 05:40:35;;;;;;;7.22;3.13;;;22.00;99.90;;;;;;5016849;28;20436;-68
2022/03/27 05:43:03;;;;;;;5.88;1.92;;;21.80;99.90;;;;;;5015260;28;20040;-68
2022/03/27 05:45:31;;;;;;;7.43;1.80;;;21.60;99.90;;;;;;5016746;28;20037;-68
2022/03/27 05:47:58;;;;;;;3.97;1.60;;;21.20;99.90;;;;;;5016598;28;20124;-67
2022/03/27 05:50:25;;;;;;;2.83;1.00;;;20.90;99.90;;;;;;5015416;28;20081;-68
2022/03/27 05:52:53;;;;;;;2.05;0.90;;;20.60;99.90;;;;;;5016259;28;20038;-65
2022/03/27 05:55:21;;;;;;;3.33;1.45;;;20.30;99.90;;;;;;5014842;28;20330;-66
2022/03/27 05:57:49;;;;;;;2.53;0.90;;;20.10;99.90;;;;;;5016124;28;20029;-69
2022/03/27 06:00:21;;;;;;;3.08;1.10;;;19.90;99.90;;;;;;5016497;28;20030;-68
2022/03/27 06:02:50;;;;;;;4.75;1.48;;;19.80;99.90;;;;;;5016363;28;20060;-66
2022/03/27 06:05:22;;;;;;;4.28;1.20;;;19.80;99.90;;;;;;5015876;28;20551;-69
2022/03/27 06:07:52;;;;;;;4.03;1.17;;;19.80;99.90;;;;;;5017731;28;20309;-70
2022/03/27 06:10:33;;;;;;;5.22;1.70;;;19.90;99.90;;;;;;5018125;28;20281;-65
2022/03/27 06:13:02;;;;;;;4.43;1.50;;;20.00;99.90;;;;;;5019108;28;20464;-69
2022/03/27 06:15:30;;;;;;;4.95;1.50;;;20.10;99.90;;;;;;5018002;28;20037;-66
2022/03/27 06:17:58;;;;;;;6.25;1.50;;;20.10;99.90;;;;;;5017182;28;20475;-70
2022/03/27 06:20:30;;;;;;;5.28;1.20;;;20.10;99.90;;;;;;5018819;28;20036;-68
2022/03/27 06:22:57;;;;;;;6.68;1.70;;;20.10;99.90;;;;;;5018705;28;20372;-67
2022/03/27 06:25:26;;;;;;;5.38;1.80;;;20.10;99.90;;;;;;5018285;28;20212;-68
2022/03/27 06:27:55;;;;;;;7.43;1.83;;;20.00;99.90;;;;;;5018416;28;20083;-70
2022/03/27 06:30:24;;;;;;;5.65;1.40;;;20.00;99.90;;;;;;5018726;28;20030;-70
2022/03/27 06:32:52;;;;;;;4.82;1.63;;;20.10;99.90;;;;;;5018702;28;20033;-66
2022/03/27 06:35:20;;;;;;;5.43;1.70;;;20.10;99.90;;;;;;5016814;28;20032;-66
2022/03/27 06:37:47;;;;;;;3.95;1.50;;;20.20;99.90;;;;;;5018916;28;20519;-66
2022/03/27 06:40:15;;;;;;;8.30;2.85;;;20.20;99.90;;;;;;5018809;28;20029;-73
2022/03/27 06:42:44;;;;;;;5.18;2.00;;;20.30;99.90;;;;;;5017834;28;20503;-65
2022/03/27 06:45:13;;;;;;;5.05;2.10;;;20.30;99.90;;;;;;5017579;28;20041;-71
2022/03/27 06:47:42;;;;;;;5.72;2.10;;;20.30;99.90;;;;;;5018641;28;20091;-73
2022/03/27 06:50:10;;;;;;;6.28;1.85;;;20.30;99.90;;;;;;5001060;28;20034;-66
2022/03/27 06:52:38;;;;;;;6.47;2.20;;;20.30;99.90;;;;;;5019231;28;20483;-70
2022/03/27 06:55:08;;;;;;;5.32;1.92;;;20.30;99.90;;;;;;5022105;28;20074;-72
2022/03/27 06:57:36;;;;;;;5.50;2.72;;;20.20;99.90;;;;;;5020739;28;20036;-71
2022/03/27 07:03:03;;;;;;;15.70;6.05;;;20.10;99.90;;;;;;5020829;28;20056;-74
2022/03/27 07:05:36;;;;;;;9.20;5.45;;;20.10;99.90;;;;;;5017837;28;20033;-64
2022/03/27 07:08:04;;;;;;;10.55;4.70;;;20.20;99.90;;;;;;5019062;28;20036;-69
2022/03/27 07:10:31;;;;;;;9.30;3.50;;;20.20;99.90;;;;;;5019166;28;20072;-69
2022/03/27 07:12:59;;;;;;;6.35;2.88;;;20.30;99.90;;;;;;5019562;28;20033;-64
2022/03/27 07:15:26;;;;;;;5.75;2.50;;;20.20;99.90;;;;;;5018675;28;20049;-70
2022/03/27 07:17:53;;;;;;;7.97;2.13;;;20.10;99.90;;;;;;5016626;28;20711;-70
2022/03/27 07:20:27;;;;;;;7.50;2.65;;;20.10;99.90;;;;;;5001058;28;20041;-64
2022/03/27 07:22:55;;;;;;;6.15;1.77;;;20.10;99.90;;;;;;5019676;28;20036;-70
2022/03/27 07:25:25;;;;;;;7.55;2.22;;;20.10;99.90;;;;;;5020307;28;20563;-64
2022/03/27 07:27:53;;;;;;;5.57;2.03;;;20.10;99.90;;;;;;5018703;28;20014;-65
2022/03/27 07:30:20;;;;;;;7.70;2.20;;;20.10;99.90;;;;;;5020207;28;20037;-71
2022/03/27 07:32:48;;;;;;;5.05;1.77;;;20.10;99.90;;;;;;5017707;28;20091;-68
2022/03/27 07:35:15;;;;;;;5.78;1.85;;;20.10;99.90;;;;;;5019627;28;20108;-67
2022/03/27 07:37:44;;;;;;;4.60;1.80;;;20.00;99.90;;;;;;5019173;28;20839;-69
2022/03/27 07:40:13;;;;;;;3.00;2.10;;;20.00;99.90;;;;;;5019439;28;20025;-66
2022/03/27 07:42:43;;;;;;;6.22;2.67;;;20.00;99.90;;;;;;5019048;28;20025;-66
2022/03/27 07:45:10;;;;;;;7.25;2.25;;;20.10;99.90;;;;;;5019278;28;20057;-66
2022/03/27 07:47:37;;;;;;;7.07;2.00;;;20.00;99.90;;;;;;5018196;28;20466;-69
2022/03/27 07:50:06;;;;;;;5.53;1.73;;;20.00;99.90;;;;;;5019057;28;20025;-68
2022/03/27 07:52:34;;;;;;;3.88;1.63;;;20.10;99.90;;;;;;5018575;28;20060;-69
2022/03/27 07:55:02;;;;;;;9.50;2.88;;;20.00;99.90;;;;;;5018925;28;20021;-67
2022/03/27 07:57:29;;;;;;;4.07;2.00;;;20.00;99.90;;;;;;5017754;28;20029;-65
2022/03/27 07:59:56;;;;;;;6.20;2.28;;;20.00;99.90;;;;;;5019436;28;20072;-67
2022/03/27 08:02:24;;;;;;;5.53;2.38;;;20.10;99.90;;;;;;5019375;28;20091;-70
2022/03/27 08:04:50;;;;;;;7.25;2.50;;;20.10;99.90;;;;;;4999070;28;20040;-69
2022/03/27 08:07:18;;;;;;;7.95;2.90;;;20.10;99.90;;;;;;5018378;28;20124;-65
2022/03/27 08:09:46;;;;;;;6.57;2.53;;;20.00;99.90;;;;;;5018654;28;20025;-65
2022/03/27 08:12:12;;;;;;;7.90;2.33;;;20.00;99.90;;;;;;5018402;28;20021;-66
2022/03/27 08:14:43;;;;;;;9.07;2.85;;;20.00;99.90;;;;;;5012565;28;21062;-65
2022/03/27 08:17:11;;;;;;;5.32;1.77;;;20.00;99.90;;;;;;4994890;28;20431;-75
2022/03/27 08:19:38;;;;;;;5.90;1.52;;;19.90;99.90;;;;;;5014513;28;20060;-67
2022/03/27 08:22:05;;;;;;;4.07;1.80;;;19.80;99.90;;;;;;5013645;28;20060;-69
2022/03/27 08:24:33;;;;;;;7.03;2.58;;;19.80;99.90;;;;;;5014949;28;20029;-67
2022/03/27 08:27:02;;;;;;;7.50;5.00;;;19.80;99.90;;;;;;5014173;28;20025;-72
2022/03/27 08:29:32;;;;;;;4.88;2.20;;;19.70;99.90;;;;;;5013730;28;20202;-68
2022/03/27 08:32:01;;;;;;;6.68;4.30;;;19.60;99.90;;;;;;5014308;28;20148;-66
2022/03/27 08:34:30;;;;;;;7.70;5.68;;;19.50;99.90;;;;;;5010653;28;20028;-67
2022/03/27 08:36:58;;;;;;;6.47;2.25;;;19.50;99.90;;;;;;5012221;28;20037;-73
2022/03/27 08:39:27;;;;;;;5.63;2.85;;;19.50;99.90;;;;;;5011312;28;20081;-64
2022/03/27 08:41:55;;;;;;;5.22;2.25;;;19.50;99.90;;;;;;5011920;28;20396;-70
2022/03/27 08:44:25;;;;;;;5.45;1.63;;;19.50;99.90;;;;;;5010287;28;20029;-65
2022/03/27 08:46:53;;;;;;;3.97;2.10;;;19.40;99.90;;;;;;5011328;28;20025;-65
2022/03/27 08:49:53;;;;;;;3.08;0.88;;;19.40;99.90;;;;;;5008898;28;20400;-67
2022/03/27 08:52:21;;;;;;;1.63;1.00;;;19.50;99.90;;;;;;5011000;28;20090;-69
2022/03/27 08:55:05;;;;;;;2.38;1.20;;;19.50;99.90;;;;;;5011411;28;20069;-70
2022/03/27 08:57:55;;;;;;;3.40;1.08;;;19.40;99.90;;;;;;5010826;28;20322;-64
2022/03/27 09:00:33;;;;;;;3.67;1.50;;;19.50;99.90;;;;;;5011970;28;20025;-64
2022/03/27 09:03:03;;;;;;;4.53;1.80;;;19.50;99.90;;;;;;5012452;28;20034;-68
2022/03/27 09:05:32;;;;;;;3.90;1.63;;;19.50;99.90;;;;;;5010207;28;20470;-67
2022/03/27 09:08:07;;;;;;;5.45;1.80;;;19.50;99.90;;;;;;5010884;28;20048;-66
2022/03/27 09:10:35;;;;;;;4.00;1.98;;;19.50;99.90;;;;;;5009585;28;20025;-66
2022/03/27 09:13:02;;;;;;;4.75;3.42;;;19.50;99.90;;;;;;5013945;28;20021;-67
2022/03/27 09:15:30;;;;;;;5.55;3.63;;;19.50;99.90;;;;;;5010592;28;20025;-65
2022/03/27 09:18:04;;;;;;;6.72;2.40;;;19.50;99.90;;;;;;5010906;28;20034;-66
2022/03/27 09:20:34;;;;;;;5.82;2.70;;;19.50;99.90;;;;;;5012044;28;20104;-65
2022/03/27 09:23:30;;;;;;;3.60;1.20;;;19.40;99.90;;;;;;5012689;28;20035;-67
2022/03/27 09:26:02;;;;;;;5.05;3.03;;;19.40;99.90;;;;;;4995987;28;20431;-67
2022/03/27 09:28:36;;;;;;;7.45;1.80;;;19.40;99.90;;;;;;5015139;28;20434;-66
2022/03/27 09:31:17;;;;;;;5.72;3.55;;;19.40;99.90;;;;;;5014896;28;20037;-66
2022/03/27 09:33:55;;;;;;;6.82;3.10;;;19.30;99.90;;;;;;5016445;28;20032;-65
2022/03/27 09:36:30;;;;;;;5.85;2.55;;;19.30;99.90;;;;;;5016199;28;20364;-67
2022/03/27 09:39:09;;;;;;;3.05;2.05;;;19.20;99.90;;;;;;5015623;28;20505;-63
2022/03/27 09:41:42;;;;;;;4.82;1.20;;;19.30;99.90;;;;;;5016547;28;20033;-67
2022/03/27 09:44:12;;;;;;;4.80;1.50;;;19.30;99.90;;;;;;5017182;28;20914;-67
2022/03/27 09:47:01;;;;;;;4.00;1.30;;;19.40;99.90;;;;;;5018263;28;20113;-68
2022/03/27 09:49:47;;;;;;;5.32;1.92;;;19.40;99.90;;;;;;5017938;28;20393;-66
2022/03/27 09:52:19;;;;;;;3.88;1.60;;;19.40;99.90;;;;;;5019256;28;20128;-67
2022/03/27 09:55:01;;;;;;;4.60;1.40;;;19.40;99.90;;;;;;5019815;28;20709;-64
2022/03/27 09:57:29;;;;;;;;;;;19.40;99.90;;;;;;5018204;28;20040;-66
2022/03/27 09:59:58;;;;;;;4.78;1.90;;;19.50;99.90;;;;;;5018545;28;19927;-66
2022/03/27 10:02:30;;;;;;;4.38;1.58;;;19.40;99.90;;;;;;5017150;28;20033;-66
2022/03/27 10:05:07;;;;;;;7.35;2.03;;;19.40;99.90;;;;;;5018536;28;20043;-64
2022/03/27 10:07:43;;;;;;;4.97;1.50;;;19.30;99.90;;;;;;5018692;28;20320;-65
2022/03/27 10:10:16;;;;;;;3.42;1.40;;;19.30;99.90;;;;;;5015835;28;20032;-65
2022/03/27 10:12:45;;;;;;;7.90;1.90;;;19.30;99.90;;;;;;5017518;28;20577;-66
2022/03/27 10:15:17;;;;;;;8.40;1.67;;;19.30;99.90;;;;;;5000540;28;20052;-64
2022/03/27 10:17:55;;;;;;;3.95;2.40;;;19.30;99.90;;;;;;5016850;28;20471;-66
2022/03/27 10:20:26;;;;;;;9.32;5.47;;;19.40;99.90;;;;;;5018773;28;20068;-67
2022/03/27 10:23:23;;;;;;;15.80;13.23;;;19.40;99.90;;;;;;5017566;28;20157;-66
2022/03/27 10:25:55;;;;;;;13.57;7.93;;;19.50;99.90;;;;;;5017613;28;20057;-63
2022/03/27 10:28:22;;;;;;;10.50;4.40;;;19.50;99.90;;;;;;5016748;28;20041;-65
2022/03/27 10:30:54;;;;;;;7.75;2.35;;;19.60;99.90;;;;;;5018748;28;20037;-64
2022/03/27 10:33:25;;;;;;;10.23;2.22;;;19.50;99.90;;;;;;5018506;28;20079;-65
2022/03/27 10:38:53;;;;;;;9.13;3.10;;;19.50;99.90;;;;;;5048737;23;20570;-67
2022/03/27 10:41:25;;;;;;;9.73;3.20;;;19.50;99.90;;;;;;5017119;28;20025;-70
2022/03/27 10:44:06;;;;;;;9.10;3.65;;;19.50;99.90;;;;;;5017305;28;20052;-65
2022/03/27 10:46:34;;;;;;;7.78;3.88;;;19.50;99.90;;;;;;5018775;28;20076;-68
2022/03/27 10:49:17;;;;;;;6.75;4.00;;;19.50;99.90;;;;;;5015781;28;20052;-65
2022/03/27 10:51:46;;;;;;;8.10;3.95;;;19.50;99.90;;;;;;5016875;28;20025;-67
2022/03/27 10:54:18;;;;;;;9.80;4.13;;;19.40;99.90;;;;;;5017867;28;20552;-67
2022/03/27 10:56:54;;;;;;;9.18;4.15;;;19.40;99.90;;;;;;5018135;28;20031;-65
2022/03/27 10:59:23;;;;;;;8.10;3.80;;;19.40;99.90;;;;;;5018144;28;20128;-64
2022/03/27 11:01:52;;;;;;;8.45;5.50;;;19.30;99.90;;;;;;5021454;28;20025;-64
2022/03/27 11:04:35;;;;;;;8.18;3.58;;;19.30;99.90;;;;;;5020457;28;20477;-65
2022/03/27 11:07:34;;;;;;;5.68;3.28;;;19.30;99.90;;;;;;5018265;28;20148;-66
2022/03/27 11:10:01;;;;;;;6.65;3.33;;;19.30;99.90;;;;;;4941492;29;20105;-63
2022/03/27 11:12:29;;;;;;;10.88;3.08;;;19.20;99.90;;;;;;4941175;29;20498;-63
2022/03/27 11:15:03;;;;;;;6.65;2.90;;;19.30;99.90;;;;;;4938821;28;20288;-63
2022/03/27 11:17:45;;;;;;;5.57;3.15;;;19.20;99.90;;;;;;4936903;28;20106;-65
2022/03/27 11:20:24;;;;;;;6.85;3.38;;;19.20;99.90;;;;;;4940639;28;20524;-64
2022/03/27 11:22:59;;;;;;;5.28;2.70;;;19.20;99.90;;;;;;4939875;29;20043;-64
2022/03/27 11:25:35;;;;;;;5.50;3.13;;;19.20;99.90;;;;;;4939730;28;20035;-63
2022/03/27 11:28:11;;;;;;;7.20;2.95;;;19.20;99.90;;;;;;4937237;29;20066;-65
2022/03/27 11:30:55;;;;;;;6.90;3.20;;;19.10;99.90;;;;;;4936688;29;20046;-63
2022/03/27 11:33:32;;;;;;;5.78;2.55;;;19.10;99.90;;;;;;4944216;28;20047;-63
2022/03/27 11:36:07;;;;;;;4.55;2.70;;;19.00;99.90;;;;;;4939648;29;20037;-63
2022/03/27 11:38:37;;;;;;;7.38;2.45;;;19.00;99.90;;;;;;4937141;28;20047;-65
2022/03/27 11:41:23;;;;;;;5.72;2.33;;;19.00;99.90;;;;;;4940426;29;20486;-64
2022/03/27 11:43:51;;;;;;;4.43;2.25;;;19.00;99.90;;;;;;4941807;29;20148;-67
2022/03/27 11:46:37;;;;;;;6.05;2.55;;;19.00;99.90;;;;;;4998793;28;20060;-62
2022/03/27 11:49:04;;;;;;;5.57;2.50;;;19.00;99.90;;;;;;5023139;28;20082;-62
2022/03/27 11:51:31;;;;;;;3.58;1.90;;;19.00;99.90;;;;;;5020617;28;20091;-63
2022/03/27 11:53:59;;;;;;;10.18;2.78;;;19.00;99.90;;;;;;5019240;28;20030;-65
2022/03/27 11:56:26;;;;;;;6.28;2.55;;;19.00;99.90;;;;;;5018838;28;20025;-62
2022/03/27 11:59:03;;;;;;;6.70;2.08;;;19.00;99.90;;;;;;5018243;28;20032;-62
2022/03/27 12:01:33;;;;;;;7.75;2.22;;;19.10;99.90;;;;;;5022388;28;20037;-64
2022/03/27 12:04:01;;;;;;;7.28;2.35;;;19.00;99.90;;;;;;5020373;28;20589;-65
2022/03/27 12:06:29;;;;;;;6.95;3.10;;;19.00;99.90;;;;;;5016043;28;20381;-63
2022/03/27 12:08:58;;;;;;;7.22;3.15;;;19.00;99.90;;;;;;5021759;28;20112;-63
2022/03/27 12:11:26;;;;;;;6.53;2.45;;;19.00;99.90;;;;;;5018705;28;20029;-66
2022/03/27 12:13:56;;;;;;;11.57;2.78;;;19.00;99.90;;;;;;5020228;28;20029;-65
2022/03/27 12:16:29;;;;;;;3.42;2.22;;;19.00;99.90;;;;;;5017637;28;20022;-62
2022/03/27 12:18:58;;;;;;;3.58;2.70;;;19.00;99.90;;;;;;5018173;28;20514;-62
2022/03/27 12:21:25;;;;;;;6.38;2.63;;;19.00;99.90;;;;;;5021776;28;20048;-66
2022/03/27 12:24:02;;;;;;;5.22;2.45;;;19.00;99.90;;;;;;5015085;28;20483;-69
2022/03/27 12:29:40;;;;;;;7.13;2.65;;;19.10;99.90;;;;;;5013918;28;20041;-64
2022/03/27 12:32:07;;;;;;;7.57;2.90;;;19.10;99.90;;;;;;5016446;28;20053;-63
2022/03/27 12:34:40;;;;;;;5.32;2.83;;;19.00;99.90;;;;;;5020944;28;20480;-65
2022/03/27 12:37:14;;;;;;;7.60;2.58;;;19.00;99.90;;;;;;5017859;28;20452;-69
2022/03/27 12:40:02;;;;;;;7.63;2.90;;;19.00;99.90;;;;;;5020981;28;20033;-64
2022/03/27 12:42:37;;;;;;;8.70;3.00;;;19.00;99.90;;;;;;5023406;28;20139;-65
2022/03/27 12:45:06;;;;;;;7.95;3.67;;;19.00;99.90;;;;;;5017416;28;20120;-65
2022/03/27 12:47:45;;;;;;;11.57;3.70;;;18.90;99.90;;;;;;5026969;28;20021;-67
2022/03/27 12:50:32;;;;;;;7.32;4.25;;;18.90;99.90;;;;;;5022226;28;20052;-68
2022/03/27 12:53:22;;;;;;;11.15;4.50;;;18.80;99.90;;;;;;4998785;28;20061;-64
2022/03/27 12:55:56;;;;;;;6.38;4.40;;;18.80;99.90;;;;;;5009715;28;20479;-65
2022/03/27 12:58:39;;;;;;;6.78;4.30;;;18.80;99.90;;;;;;5011953;28;20426;-64
2022/03/27 13:01:26;;;;;;;5.35;3.78;;;18.80;99.90;;;;;;5023492;28;20031;-69
2022/03/27 13:04:08;;;;;;;6.50;3.20;;;18.70;99.90;;;;;;5000754;28;20029;-63
2022/03/27 13:06:43;;;;;;;5.20;3.42;;;18.80;99.90;;;;;;5019347;28;20500;-68
2022/03/27 13:09:20;;;;;;;4.30;2.55;;;18.80;99.90;;;;;;5016494;28;20057;-68
2022/03/27 13:11:47;;;;;;;7.95;3.08;;;18.80;99.90;;;;;;5016269;28;20029;-67
2022/03/27 13:14:14;;;;;;;6.45;3.13;;;18.70;99.90;;;;;;5019613;28;20564;-67